Terminal Aerodrome Forecast
Issued by NWS Wilmington, OH

Home | Current Version | Previous Version | Text Only | Print | Product List | Glossary On
Versions: 1 2 3 4 5 6 7 8 9 10 11 12 13 14 15 16 17 18 19
000
FTUS41 KILN 170540
TAFILN
TAF
KILN 170540Z 1706/1806 21007KT P6SM BKN250
     FM171700 20007KT P6SM VCSH BKN060 OVC100
     FM172000 20006KT P6SM OVC045
     FM180300 20006KT P6SM OVC030
      TEMPO 1803/1806 BKN014=

USA.gov is the U.S. government's official web portal to all federal, state and local government web resources and services.